Stewarts Point, CA (95480)

12:31 AM PST on December 05, 2016 (GMT -0800)
Creekside | | Change Station

Elev 479 ft 38.71 °N, 123.32 °W | Updated 34 seconds ago

Mostly Cloudy
Mostly Cloudy
46.6 °F
Feels Like 47 °F
N
0.0
Wind Variable Wind from NE
Gusts 0.0 mph

Today
High -- | Low -- °F
--% Chance of Precip.
Yesterday
High -- | Low -- °F
Precip. -- in
Pressure 30.13 in
Visibility 10.0 miles
Clouds Mostly Cloudy 4400 ft
Windchill 47 °F
Dew Point 29 °F
Humidity 50%
Rainfall 0.00 in
Snow Depth Not available.
7:16 AM 4:51 PM
Waxing Crescent, 29% visible
METAR KUKI 050756Z AUTO 00000KT 10SM BKN044 09/08 A3014 RMK AO2 SLP203 T00890078 401560022 $
Pressure 30.13 in
Visibility 10.0 miles
Clouds Mostly Cloudy 4400 ft
Windchill 47 °F
Dew Point 29 °F
Humidity 50%
Rainfall 0.00 in
Snow Depth Not available.
7:16 AM 4:51 PM
Waxing Crescent, 29% visible
METAR KUKI 050756Z AUTO 00000KT 10SM BKN044 09/08 A3014 RMK AO2 SLP203 T00890078 401560022 $

10-Day Weather Forecast

Almanac

Astronomy

Dec. 05, 2016 Rise Set
Actual Time
Civil Twilight
Nautical Twilight
Astronomical Twilight
Moon
Length of Visible Light
Length of Day
Tomorrow will be .
, % of the Moon is Illuminated

Today's Extremes

State Highs State Lows

Community

WunderPhotos

Upload Photos

1,955,771 photos uploaded!

WunderBlog® & News

Nearby

Air Quality

  Air Quality AQ Index Pollutant
Not available.

Snow Depth

Station Depth Elevation

Earthquake Activity

City Distance Mag. Time & Date
Minimum magnitude displayed is 2.5.

Coastal Water Temperatures

Place Temperature

Stations

Nearby Weather Stations

Station Location Temp. Windchill Dew Point Humidity Wind Precip. Elev Updated Type
                   

Watches & Warnings

There are currently no watches in effect.